Time;durP1;ratioP1;P1;durP2;ratioP2;P2;SDS_P1;SDS_P2;PMS_P1;PMS_P2;Temp;Humidity;BMP_temperature;BMP_pressure;BME280_temperature;BME280_humidity;BME280_pressure;Samples;Min_cycle;Max_cycle;Signal;HPM_P1;HPM_P2
2022/11/03 00:00:37;;;;;;;33.75;5.50;;;;;;;;;;5012750;28;20383;-55
2022/11/03 00:03:04;;;;;;;38.35;4.72;;;;;;;;;;5012103;28;20037;-51
2022/11/03 00:08:16;;;;;;;35.13;5.18;;;;;;;;;;5008728;28;20140;-57
2022/11/03 00:10:43;;;;;;;34.35;5.97;;;;;;;;;;5010847;28;20088;-56
2022/11/03 00:13:10;;;;;;;30.17;4.90;;;;;;;;;;5006912;28;20104;-59
2022/11/03 00:15:36;;;;;;;28.90;4.72;;;;;;;;;;5008723;28;20033;-50
2022/11/03 00:18:03;;;;;;;36.70;5.10;;;;;;;;;;5009735;28;20120;-53
2022/11/03 00:20:30;;;;;;;31.85;5.35;;;;;;;;;;5009673;28;20399;-48
2022/11/03 00:22:57;;;;;;;28.08;5.20;;;;;;;;;;5005464;28;20026;-53
2022/11/03 00:25:24;;;;;;;32.00;6.43;;;;;;;;;;5010361;28;20514;-52
2022/11/03 00:27:55;;;;;;;26.67;5.05;;;;;;;;;;5009859;28;20041;-52
2022/11/03 00:30:22;;;;;;;29.80;5.05;;;;;;;;;;4991737;28;20424;-53
2022/11/03 00:32:49;;;;;;;29.23;5.50;;;;;;;;;;5008525;28;20042;-54
2022/11/03 00:35:16;;;;;;;34.80;5.20;;;;;;;;;;5008228;28;20065;-50
2022/11/03 00:37:44;;;;;;;29.88;5.50;;;;;;;;;;5009315;28;20026;-53
2022/11/03 00:40:11;;;;;;;30.60;5.80;;;;;;;;;;5009612;28;20069;-52
2022/11/03 00:42:38;;;;;;;36.45;5.35;;;;;;;;;;5008329;28;20030;-54
2022/11/03 00:45:05;;;;;;;38.47;5.70;;;;;;;;;;5008354;28;20029;-56
2022/11/03 00:47:32;;;;;;;23.20;5.07;;;;;;;;;;5007594;28;20036;-54
2022/11/03 00:50:02;;;;;;;36.88;5.80;;;;;;;;;;5012831;28;20102;-50
2022/11/03 00:52:29;;;;;;;30.90;5.07;;;;;;;;;;5011993;28;20061;-51
2022/11/03 00:54:56;;;;;;;31.83;4.82;;;;;;;;;;5014569;28;20107;-54
2022/11/03 00:57:22;;;;;;;28.15;5.22;;;;;;;;;;5014933;28;20112;-49
2022/11/03 00:59:49;;;;;;;27.00;5.90;;;;;;;;;;5014839;28;20038;-50
2022/11/03 01:02:16;;;;;;;28.58;5.65;;;;;;;;;;5014613;28;20426;-53
2022/11/03 01:07:28;;;;;;;28.83;5.07;;;;;;;;;;5013884;28;20040;-48
2022/11/03 01:09:55;;;;;;;32.20;5.95;;;;;;;;;;5014309;28;20034;-48
2022/11/03 01:12:22;;;;;;;52.53;9.18;;;;;;;;;;5015090;28;20480;-47
2022/11/03 01:14:50;;;;;;;35.78;9.30;;;;;;;;;;5012182;28;20088;-54
2022/11/03 01:17:22;;;;;;;40.40;8.93;;;;;;;;;;5014885;28;20026;-52
2022/11/03 01:19:49;;;;;;;44.45;9.95;;;;;;;;;;4998025;28;20506;-49
2022/11/03 01:22:16;;;;;;;38.10;9.68;;;;;;;;;;5014372;28;20026;-54
2022/11/03 01:24:44;;;;;;;43.00;9.65;;;;;;;;;;5014996;28;20034;-53
2022/11/03 01:27:12;;;;;;;43.65;9.45;;;;;;;;;;4999319;28;20434;-51
2022/11/03 01:29:39;;;;;;;42.50;9.45;;;;;;;;;;5007816;28;20551;-54
2022/11/03 01:32:07;;;;;;;41.83;10.10;;;;;;;;;;5014025;28;20400;-53
2022/11/03 01:34:34;;;;;;;36.03;9.00;;;;;;;;;;5014225;28;20077;-51
2022/11/03 01:37:01;;;;;;;43.75;9.07;;;;;;;;;;5013789;28;20061;-49
2022/11/03 01:39:28;;;;;;;50.17;10.60;;;;;;;;;;5014053;28;20053;-49
2022/11/03 01:41:55;;;;;;;36.78;9.13;;;;;;;;;;5014608;28;20053;-51
2022/11/03 01:44:22;;;;;;;47.78;9.02;;;;;;;;;;5000618;28;20029;-50
2022/11/03 01:47:07;;;;;;;53.92;10.07;;;;;;;;;;5014734;28;20034;-50
2022/11/03 01:49:34;;;;;;;54.25;9.15;;;;;;;;;;5014641;28;20033;-52
2022/11/03 01:52:21;;;;;;;63.88;9.27;;;;;;;;;;5014144;28;20030;-53
2022/11/03 01:54:50;;;;;;;54.08;8.02;;;;;;;;;;5014246;28;20534;-49
2022/11/03 01:57:21;;;;;;;39.95;7.50;;;;;;;;;;5001270;28;20033;-53
2022/11/03 01:59:48;;;;;;;49.42;7.95;;;;;;;;;;5014398;28;20113;-49
2022/11/03 02:02:16;;;;;;;64.20;9.00;;;;;;;;;;5014067;28;20057;-53
2022/11/03 02:04:43;;;;;;;58.30;9.20;;;;;;;;;;5013908;28;20026;-48
2022/11/03 02:07:10;;;;;;;57.17;9.30;;;;;;;;;;5013578;28;20030;-47
2022/11/03 02:09:37;;;;;;;65.93;8.55;;;;;;;;;;5014023;28;20026;-54
2022/11/03 02:12:07;;;;;;;57.38;8.07;;;;;;;;;;5011630;28;20799;-53
2022/11/03 02:14:35;;;;;;;53.70;7.97;;;;;;;;;;5012343;28;20049;-53
2022/11/03 02:17:06;;;;;;;48.85;7.05;;;;;;;;;;5012206;28;20036;-53
2022/11/03 02:19:42;;;;;;;52.08;7.07;;;;;;;;;;5011858;28;20061;-53
2022/11/03 02:22:18;;;;;;;33.05;7.10;;;;;;;;;;5012704;28;20141;-50
2022/11/03 02:24:53;;;;;;;45.60;7.10;;;;;;;;;;5010996;28;20061;-49
2022/11/03 02:27:20;;;;;;;33.75;6.40;;;;;;;;;;5013494;28;20048;-49
2022/11/03 02:29:47;;;;;;;32.05;5.88;;;;;;;;;;5013549;28;20551;-49
2022/11/03 02:32:27;;;;;;;31.85;6.57;;;;;;;;;;4995700;28;20496;-51
2022/11/03 02:35:00;;;;;;;41.03;6.10;;;;;;;;;;5013392;28;20038;-52
2022/11/03 02:37:33;;;;;;;33.08;5.72;;;;;;;;;;5013585;28;20037;-49
2022/11/03 02:40:06;;;;;;;24.50;5.45;;;;;;;;;;5013412;28;20025;-50
2022/11/03 02:42:35;;;;;;;33.92;6.28;;;;;;;;;;5013190;28;20555;-51
2022/11/03 02:45:03;;;;;;;26.02;5.70;;;;;;;;;;5013332;28;20076;-52
2022/11/03 02:47:31;;;;;;;31.88;6.05;;;;;;;;;;5013440;28;20045;-50
2022/11/03 02:49:58;;;;;;;26.48;5.63;;;;;;;;;;5012962;28;20124;-54
2022/11/03 02:52:43;;;;;;;26.77;5.22;;;;;;;;;;5013261;28;20430;-51
2022/11/03 02:55:13;;;;;;;31.05;5.28;;;;;;;;;;5013200;28;20026;-48
2022/11/03 02:57:47;;;;;;;26.60;5.25;;;;;;;;;;5013423;28;20073;-48
2022/11/03 03:00:16;;;;;;;22.10;5.13;;;;;;;;;;5013494;28;20033;-52
2022/11/03 03:03:01;;;;;;;21.45;4.07;;;;;;;;;;5013373;28;20113;-52
2022/11/03 03:05:29;;;;;;;26.85;4.70;;;;;;;;;;5008138;28;20307;-48
2022/11/03 03:08:00;;;;;;;27.67;4.85;;;;;;;;;;4994056;28;20038;-50
2022/11/03 03:10:31;;;;;;;26.17;4.65;;;;;;;;;;5007187;28;20049;-48
2022/11/03 03:12:58;;;;;;;22.55;4.45;;;;;;;;;;5004318;28;20061;-49
2022/11/03 03:15:45;;;;;;;17.48;4.45;;;;;;;;;;5013232;28;20388;-52
2022/11/03 03:18:15;;;;;;;17.98;3.90;;;;;;;;;;5013308;28;20033;-51
2022/11/03 03:20:49;;;;;;;19.52;3.85;;;;;;;;;;5013249;28;20018;-52
2022/11/03 03:23:16;;;;;;;28.08;4.15;;;;;;;;;;4995454;28;20030;-49
2022/11/03 03:25:50;;;;;;;20.20;4.38;;;;;;;;;;5009051;28;20029;-52
2022/11/03 03:28:20;;;;;;;20.77;3.72;;;;;;;;;;5004902;28;20030;-49
2022/11/03 03:30:48;;;;;;;15.77;3.63;;;;;;;;;;5013130;28;20040;-49
2022/11/03 03:33:15;;;;;;;16.73;3.70;;;;;;;;;;5012647;28;20484;-50
2022/11/03 03:35:44;;;;;;;16.48;3.40;;;;;;;;;;5009665;28;20044;-51
2022/11/03 03:38:15;;;;;;;18.85;4.10;;;;;;;;;;5012619;28;20087;-50
2022/11/03 03:40:44;;;;;;;16.58;4.18;;;;;;;;;;5011149;28;20030;-48
2022/11/03 03:43:12;;;;;;;19.55;3.20;;;;;;;;;;5001590;28;20033;-48
2022/11/03 03:45:39;;;;;;;15.88;2.92;;;;;;;;;;5012896;28;20041;-52
2022/11/03 03:48:07;;;;;;;13.48;3.30;;;;;;;;;;5012620;28;20045;-52
2022/11/03 03:50:35;;;;;;;15.32;3.67;;;;;;;;;;5012858;28;20065;-48
2022/11/03 03:53:04;;;;;;;16.65;3.22;;;;;;;;;;5007713;28;20464;-49
2022/11/03 03:55:38;;;;;;;20.02;3.35;;;;;;;;;;5004727;28;20030;-52
2022/11/03 03:58:06;;;;;;;15.68;3.40;;;;;;;;;;5012997;28;20041;-52
2022/11/03 04:00:33;;;;;;;15.23;3.47;;;;;;;;;;5008185;28;20031;-50
2022/11/03 04:03:00;;;;;;;11.80;2.70;;;;;;;;;;5004113;28;20034;-52
2022/11/03 04:05:27;;;;;;;16.55;2.78;;;;;;;;;;5009566;28;20022;-50
2022/11/03 04:07:54;;;;;;;11.80;2.65;;;;;;;;;;4984961;28;20029;-49
2022/11/03 04:10:21;;;;;;;15.15;2.47;;;;;;;;;;5012698;28;20434;-47
2022/11/03 04:24:01;;;;;;;9.57;2.58;;;;;;;;;;5008229;28;20064;-51
2022/11/03 04:26:28;;;;;;;10.40;2.30;;;;;;;;;;5012627;28;20445;-49
2022/11/03 04:28:56;;;;;;;12.68;2.58;;;;;;;;;;5012248;28;20399;-51
2022/11/03 04:31:23;;;;;;;10.55;2.10;;;;;;;;;;5012433;28;20076;-51
2022/11/03 04:33:51;;;;;;;11.15;2.30;;;;;;;;;;4991228;28;20088;-50
2022/11/03 04:36:18;;;;;;;10.80;2.10;;;;;;;;;;4979162;28;20037;-48
2022/11/03 04:38:45;;;;;;;13.23;2.30;;;;;;;;;;4992974;28;20118;-49
2022/11/03 04:41:20;;;;;;;7.18;2.15;;;;;;;;;;4989248;28;20026;-49
2022/11/03 04:43:47;;;;;;;7.63;2.20;;;;;;;;;;4983762;28;20050;-53
2022/11/03 04:46:16;;;;;;;7.40;1.75;;;;;;;;;;4992810;28;20067;-50
2022/11/03 04:48:46;;;;;;;7.95;1.98;;;;;;;;;;4992758;28;20369;-47
2022/11/03 04:51:22;;;;;;;7.10;2.33;;;;;;;;;;4978947;28;20114;-46
2022/11/03 04:53:52;;;;;;;8.10;1.73;;;;;;;;;;4992651;28;20190;-47
2022/11/03 04:56:21;;;;;;;6.25;2.00;;;;;;;;;;4992607;28;20081;-49
2022/11/03 04:58:48;;;;;;;11.15;2.22;;;;;;;;;;4992701;28;20450;-49
2022/11/03 05:01:17;;;;;;;13.32;2.03;;;;;;;;;;4992646;28;20133;-50
2022/11/03 05:03:46;;;;;;;10.48;2.15;;;;;;;;;;4978609;28;20480;-50
2022/11/03 05:06:18;;;;;;;7.55;1.90;;;;;;;;;;4992453;28;20034;-52
2022/11/03 05:08:49;;;;;;;9.02;2.05;;;;;;;;;;4992360;28;20419;-47
2022/11/03 05:11:34;;;;;;;10.03;2.10;;;;;;;;;;4992506;28;20110;-49
2022/11/03 05:14:02;;;;;;;12.02;1.92;;;;;;;;;;4978635;28;20345;-49
2022/11/03 05:16:29;;;;;;;11.45;2.10;;;;;;;;;;4992472;28;20027;-50
2022/11/03 05:18:56;;;;;;;6.78;1.95;;;;;;;;;;4976428;28;20027;-47
2022/11/03 05:21:25;;;;;;;8.55;1.83;;;;;;;;;;4972936;28;20027;-54
2022/11/03 05:23:53;;;;;;;7.05;1.85;;;;;;;;;;4987187;28;20026;-51
2022/11/03 05:26:21;;;;;;;6.55;1.55;;;;;;;;;;4990633;28;20049;-48
2022/11/03 05:28:58;;;;;;;5.25;1.48;;;;;;;;;;4990743;28;20546;-51
2022/11/03 05:31:34;;;;;;;7.20;1.95;;;;;;;;;;4990240;28;20484;-52
2022/11/03 05:34:26;;;;;;;6.05;1.50;;;;;;;;;;4997680;28;20040;-54
2022/11/03 05:36:53;;;;;;;10.32;1.70;;;;;;;;;;5013865;28;20427;-51
2022/11/03 05:39:26;;;;;;;8.85;1.77;;;;;;;;;;5013065;28;20043;-47
2022/11/03 05:41:53;;;;;;;7.47;1.80;;;;;;;;;;5013581;28;20034;-51
2022/11/03 05:44:32;;;;;;;7.13;2.05;;;;;;;;;;5013577;28;20399;-50
2022/11/03 05:46:59;;;;;;;9.77;1.70;;;;;;;;;;5012441;28;20034;-48
2022/11/03 05:49:27;;;;;;;7.20;1.63;;;;;;;;;;5013746;28;20101;-48
2022/11/03 05:51:55;;;;;;;4.43;1.63;;;;;;;;;;5013207;28;20080;-52
2022/11/03 05:54:27;;;;;;;8.10;1.60;;;;;;;;;;5013432;28;20040;-52
2022/11/03 05:56:56;;;;;;;6.43;1.60;;;;;;;;;;5013501;28;20435;-46
2022/11/03 05:59:24;;;;;;;8.77;1.80;;;;;;;;;;5015046;28;20813;-46
2022/11/03 06:01:52;;;;;;;5.22;1.70;;;;;;;;;;5018194;28;20499;-51
2022/11/03 06:04:21;;;;;;;7.47;2.10;;;;;;;;;;5003225;28;20030;-48
2022/11/03 06:07:08;;;;;;;7.88;1.63;;;;;;;;;;5014525;28;20041;-50
2022/11/03 06:09:35;;;;;;;6.10;1.70;;;;;;;;;;5014571;28;20472;-49
2022/11/03 06:12:05;;;;;;;6.60;1.60;;;;;;;;;;5000623;28;20026;-49
2022/11/03 06:14:32;;;;;;;3.25;1.73;;;;;;;;;;5014490;28;20099;-48
2022/11/03 06:16:59;;;;;;;5.07;1.42;;;;;;;;;;5014485;28;20030;-49
2022/11/03 06:19:26;;;;;;;6.88;1.27;;;;;;;;;;5014552;28;20547;-48
2022/11/03 06:21:54;;;;;;;4.50;1.55;;;;;;;;;;4996660;28;20025;-50
2022/11/03 06:24:23;;;;;;;5.00;1.35;;;;;;;;;;5000518;28;20022;-51
2022/11/03 06:26:51;;;;;;;5.03;1.60;;;;;;;;;;5014367;28;20591;-50
2022/11/03 06:29:19;;;;;;;6.45;1.60;;;;;;;;;;5010382;28;20023;-51
2022/11/03 06:31:48;;;;;;;9.77;1.58;;;;;;;;;;5004696;28;20065;-52
2022/11/03 06:34:35;;;;;;;5.22;1.25;;;;;;;;;;5000114;28;20499;-52
2022/11/03 06:37:10;;;;;;;6.25;1.60;;;;;;;;;;4996054;28;20054;-51
2022/11/03 06:39:37;;;;;;;6.03;1.58;;;;;;;;;;5012890;28;20029;-51
2022/11/03 06:42:14;;;;;;;5.35;1.55;;;;;;;;;;5014004;28;20112;-51
2022/11/03 06:44:42;;;;;;;4.13;1.55;;;;;;;;;;5009577;28;20018;-46
2022/11/03 06:47:29;;;;;;;5.72;1.40;;;;;;;;;;5004939;28;20022;-49
2022/11/03 06:50:00;;;;;;;5.95;1.38;;;;;;;;;;5013936;28;20492;-49
2022/11/03 06:52:29;;;;;;;8.70;1.90;;;;;;;;;;5001465;28;20038;-50
2022/11/03 06:54:59;;;;;;;5.32;1.42;;;;;;;;;;5012672;28;20026;-47
2022/11/03 06:57:27;;;;;;;6.10;1.70;;;;;;;;;;5013810;28;20029;-49
2022/11/03 06:59:55;;;;;;;4.65;1.60;;;;;;;;;;5000504;28;20038;-47
2022/11/03 07:02:34;;;;;;;4.25;1.42;;;;;;;;;;5013513;28;20026;-49
2022/11/03 07:05:02;;;;;;;5.60;1.60;;;;;;;;;;5000081;28;20038;-49
2022/11/03 07:07:29;;;;;;;10.73;1.83;;;;;;;;;;5007985;28;20026;-51
2022/11/03 07:09:55;;;;;;;7.53;1.40;;;;;;;;;;5005885;28;20125;-50
2022/11/03 07:12:22;;;;;;;8.57;1.65;;;;;;;;;;4999491;28;20032;-50
2022/11/03 07:14:49;;;;;;;5.50;1.70;;;;;;;;;;5013347;28;20038;-49
2022/11/03 07:17:20;;;;;;;7.47;1.33;;;;;;;;;;5013504;28;20037;-49
2022/11/03 07:19:47;;;;;;;4.13;1.30;;;;;;;;;;5013430;28;20024;-52
2022/11/03 07:22:14;;;;;;;7.20;1.42;;;;;;;;;;4999297;28;20018;-47
2022/11/03 07:24:42;;;;;;;5.35;1.98;;;;;;;;;;5013303;28;20049;-50
2022/11/03 07:27:28;;;;;;;3.95;1.40;;;;;;;;;;5013099;28;20092;-48
2022/11/03 07:30:00;;;;;;;6.88;1.40;;;;;;;;;;4993571;28;20035;-47
2022/11/03 07:32:31;;;;;;;6.85;1.48;;;;;;;;;;5008659;28;20121;-47
2022/11/03 07:35:24;;;;;;;4.63;1.20;;;;;;;;;;5012969;28;20045;-47
2022/11/03 07:37:52;;;;;;;6.53;1.70;;;;;;;;;;5007060;28;20141;-51
2022/11/03 07:40:22;;;;;;;5.00;1.50;;;;;;;;;;5003488;28;20017;-48
2022/11/03 07:42:50;;;;;;;3.70;1.20;;;;;;;;;;4998775;28;20021;-50
2022/11/03 07:45:35;;;;;;;4.68;1.33;;;;;;;;;;5012952;28;20071;-49
2022/11/03 07:48:22;;;;;;;4.85;1.50;;;;;;;;;;4998991;28;20029;-48
2022/11/03 07:50:50;;;;;;;4.15;1.35;;;;;;;;;;5012907;28;20030;-52
2022/11/03 07:53:22;;;;;;;7.03;1.60;;;;;;;;;;4998697;28;20062;-49
2022/11/03 07:55:49;;;;;;;2.60;1.45;;;;;;;;;;4995035;28;20028;-47
2022/11/03 07:58:22;;;;;;;5.18;1.40;;;;;;;;;;5012038;28;20105;-56
2022/11/03 08:00:49;;;;;;;4.40;1.38;;;;;;;;;;5012709;28;20390;-48
2022/11/03 08:03:35;;;;;;;5.25;1.40;;;;;;;;;;4999532;28;20022;-49
2022/11/03 08:06:02;;;;;;;10.70;1.73;;;;;;;;;;5000841;28;20029;-47
2022/11/03 08:08:29;;;;;;;7.45;1.55;;;;;;;;;;5012161;28;20419;-52
2022/11/03 08:10:56;;;;;;;5.95;1.50;;;;;;;;;;4999280;28;20014;-52
2022/11/03 08:13:23;;;;;;;5.47;1.58;;;;;;;;;;5012275;28;20116;-47
2022/11/03 08:15:50;;;;;;;6.07;1.42;;;;;;;;;;5007614;28;20049;-48
2022/11/03 08:18:17;;;;;;;5.20;1.30;;;;;;;;;;5003610;28;20026;-51
2022/11/03 08:20:44;;;;;;;5.60;1.70;;;;;;;;;;5009206;28;20054;-51
2022/11/03 08:23:11;;;;;;;5.07;1.40;;;;;;;;;;5001703;28;20092;-49
2022/11/03 08:25:38;;;;;;;6.57;1.63;;;;;;;;;;5012215;28;20041;-52
2022/11/03 08:28:05;;;;;;;6.45;1.85;;;;;;;;;;5012186;28;20018;-48
2022/11/03 08:30:32;;;;;;;4.30;1.60;;;;;;;;;;5012243;28;20033;-47
2022/11/03 08:33:00;;;;;;;5.03;1.60;;;;;;;;;;4998256;28;20030;-48
2022/11/03 08:35:27;;;;;;;5.75;1.40;;;;;;;;;;5011969;28;20054;-49
2022/11/03 08:37:54;;;;;;;5.53;1.42;;;;;;;;;;4998161;28;20031;-48
2022/11/03 08:40:21;;;;;;;5.95;1.40;;;;;;;;;;5012117;28;20475;-51
2022/11/03 08:42:48;;;;;;;9.55;1.67;;;;;;;;;;5009118;28;20026;-48
2022/11/03 08:45:15;;;;;;;3.45;1.58;;;;;;;;;;4992420;28;20031;-49
2022/11/03 08:47:42;;;;;;;6.32;1.45;;;;;;;;;;5007314;28;20029;-47
2022/11/03 08:50:09;;;;;;;5.75;1.55;;;;;;;;;;5004907;28;20057;-51
2022/11/03 08:52:36;;;;;;;4.50;1.50;;;;;;;;;;5005573;28;20464;-47
2022/11/03 08:55:03;;;;;;;3.40;1.27;;;;;;;;;;4997897;28;20141;-48
2022/11/03 08:57:30;;;;;;;5.72;1.60;;;;;;;;;;5004275;28;20491;-50
2022/11/03 08:59:57;;;;;;;6.15;1.77;;;;;;;;;;5006089;28;20030;-47
2022/11/03 09:02:24;;;;;;;3.55;1.38;;;;;;;;;;4998271;28;20026;-47
2022/11/03 09:04:51;;;;;;;3.45;1.50;;;;;;;;;;5011752;28;20026;-49
2022/11/03 09:07:18;;;;;;;5.65;1.77;;;;;;;;;;5011634;28;20502;-48
2022/11/03 09:09:45;;;;;;;5.38;1.50;;;;;;;;;;5013098;28;20022;-48
2022/11/03 09:12:12;;;;;;;4.60;1.50;;;;;;;;;;5015512;28;20055;-47
2022/11/03 09:14:39;;;;;;;3.92;1.38;;;;;;;;;;5015540;28;20052;-50
2022/11/03 09:17:06;;;;;;;5.88;1.70;;;;;;;;;;5015580;28;20081;-47
2022/11/03 09:19:33;;;;;;;6.13;1.75;;;;;;;;;;5015487;28;20388;-48
2022/11/03 09:22:00;;;;;;;4.18;1.50;;;;;;;;;;5015580;28;20442;-50
2022/11/03 09:24:27;;;;;;;4.95;1.50;;;;;;;;;;5015332;28;20048;-49
2022/11/03 09:26:54;;;;;;;6.88;1.90;;;;;;;;;;5003894;28;20480;-48
2022/11/03 09:29:21;;;;;;;3.90;1.30;;;;;;;;;;5013388;28;20487;-48
2022/11/03 09:31:48;;;;;;;5.18;1.65;;;;;;;;;;5015342;28;20105;-47
2022/11/03 09:34:15;;;;;;;7.55;1.50;;;;;;;;;;5014955;28;20058;-47
2022/11/03 09:36:42;;;;;;;6.15;2.10;;;;;;;;;;4997594;28;20124;-47
2022/11/03 09:39:09;;;;;;;8.32;2.15;;;;;;;;;;5015131;28;20030;-52
2022/11/03 09:41:36;;;;;;;6.32;1.60;;;;;;;;;;5014976;28;20030;-52
2022/11/03 09:44:03;;;;;;;9.07;1.95;;;;;;;;;;5015135;28;20018;-51
2022/11/03 09:46:31;;;;;;;5.00;1.98;;;;;;;;;;5014936;28;20040;-47
2022/11/03 09:48:58;;;;;;;5.75;1.48;;;;;;;;;;5015147;28;20030;-49
2022/11/03 09:51:27;;;;;;;10.45;2.17;;;;;;;;;;5014463;28;20118;-48
2022/11/03 09:53:55;;;;;;;10.10;2.40;;;;;;;;;;5014611;28;20029;-51
2022/11/03 09:56:25;;;;;;;10.20;2.15;;;;;;;;;;5014940;28;20025;-50
2022/11/03 09:58:52;;;;;;;11.05;2.50;;;;;;;;;;5014677;28;20025;-48
2022/11/03 10:01:19;;;;;;;9.95;2.67;;;;;;;;;;5014807;28;20026;-47
2022/11/03 10:03:46;;;;;;;8.80;2.50;;;;;;;;;;4997756;28;20030;-49
2022/11/03 10:06:15;;;;;;;11.40;2.50;;;;;;;;;;5004491;28;20026;-48
2022/11/03 10:08:43;;;;;;;12.80;2.35;;;;;;;;;;5014401;28;20026;-49
2022/11/03 10:11:10;;;;;;;13.02;2.60;;;;;;;;;;5014481;28;20476;-49
2022/11/03 10:13:41;;;;;;;11.18;2.30;;;;;;;;;;5014457;28;20484;-47
2022/11/03 10:16:09;;;;;;;9.50;2.50;;;;;;;;;;4996769;28;20475;-52
2022/11/03 10:18:37;;;;;;;22.73;3.60;;;;;;;;;;5014374;28;20378;-52
2022/11/03 10:21:12;;;;;;;16.42;3.25;;;;;;;;;;5012459;28;20041;-47
2022/11/03 10:23:39;;;;;;;10.55;2.70;;;;;;;;;;5011526;28;20033;-48
2022/11/03 10:26:16;;;;;;;17.55;3.30;;;;;;;;;;5012724;28;20026;-48
2022/11/03 10:29:12;;;;;;;18.65;3.28;;;;;;;;;;5013575;28;20506;-49
2022/11/03 10:31:40;;;;;;;17.33;3.45;;;;;;;;;;4996468;28;20042;-47
2022/11/03 10:34:25;;;;;;;17.35;3.15;;;;;;;;;;5013577;28;20400;-49
2022/11/03 10:37:11;;;;;;;21.48;3.30;;;;;;;;;;5013920;28;20026;-48
2022/11/03 10:39:38;;;;;;;20.25;3.17;;;;;;;;;;5002439;28;20088;-47
2022/11/03 10:42:05;;;;;;;13.45;2.95;;;;;;;;;;5013347;28;20101;-49
2022/11/03 10:44:32;;;;;;;18.08;3.15;;;;;;;;;;5013964;28;20508;-47
2022/11/03 10:47:00;;;;;;;20.48;3.88;;;;;;;;;;4996135;28;20033;-47
2022/11/03 10:49:29;;;;;;;31.60;4.28;;;;;;;;;;5013836;28;20030;-48
2022/11/03 10:51:59;;;;;;;23.35;3.88;;;;;;;;;;5010104;28;20029;-47
2022/11/03 10:54:26;;;;;;;34.05;4.60;;;;;;;;;;5006571;28;20054;-48
2022/11/03 10:56:53;;;;;;;19.40;4.50;;;;;;;;;;5010489;28;20026;-47
2022/11/03 10:59:30;;;;;;;23.13;4.60;;;;;;;;;;5013173;28;20304;-47
2022/11/03 11:01:58;;;;;;;20.92;4.40;;;;;;;;;;5013561;28;20025;-47
2022/11/03 11:04:25;;;;;;;26.13;4.20;;;;;;;;;;5013343;28;20029;-46
2022/11/03 11:06:52;;;;;;;26.98;3.88;;;;;;;;;;5013340;28;20040;-50
2022/11/03 11:09:26;;;;;;;21.58;4.03;;;;;;;;;;5013507;28;20032;-47
2022/11/03 11:12:01;;;;;;;27.85;4.30;;;;;;;;;;5013225;28;20034;-48
2022/11/03 11:14:28;;;;;;;26.88;4.50;;;;;;;;;;5013444;28;20041;-48
2022/11/03 11:16:56;;;;;;;26.92;4.28;;;;;;;;;;4999562;28;20076;-47
2022/11/03 11:19:24;;;;;;;26.27;4.47;;;;;;;;;;5013277;28;20029;-49
2022/11/03 11:21:54;;;;;;;20.63;4.53;;;;;;;;;;5000175;28;20132;-47
2022/11/03 11:24:39;;;;;;;34.92;5.18;;;;;;;;;;5013010;28;20034;-48
2022/11/03 11:27:26;;;;;;;25.75;4.68;;;;;;;;;;4999328;28;20034;-47
2022/11/03 11:29:53;;;;;;;24.60;4.45;;;;;;;;;;5012512;28;20145;-51
2022/11/03 11:32:38;;;;;;;24.13;4.25;;;;;;;;;;4996882;28;20085;-47
2022/11/03 11:35:25;;;;;;;29.42;5.20;;;;;;;;;;5003283;28;20082;-47
2022/11/03 11:37:52;;;;;;;28.77;5.43;;;;;;;;;;4997266;28;20034;-47
2022/11/03 11:40:25;;;;;;;27.38;4.70;;;;;;;;;;5012974;28;20120;-48
2022/11/03 11:43:02;;;;;;;27.13;5.10;;;;;;;;;;4998960;28;20061;-50
2022/11/03 11:45:47;;;;;;;23.00;4.63;;;;;;;;;;5012924;28;20033;-47
2022/11/03 11:48:17;;;;;;;28.88;5.28;;;;;;;;;;4993289;28;20018;-48
2022/11/03 11:50:46;;;;;;;25.38;4.75;;;;;;;;;;5007077;28;20025;-47
2022/11/03 11:53:14;;;;;;;30.30;4.97;;;;;;;;;;5012445;28;20038;-49
2022/11/03 11:55:42;;;;;;;25.40;5.13;;;;;;;;;;5012683;28;20042;-47
2022/11/03 11:58:15;;;;;;;27.17;5.05;;;;;;;;;;5012735;28;20551;-53
2022/11/03 12:00:53;;;;;;;24.95;4.95;;;;;;;;;;5012728;28;20109;-46
2022/11/03 12:03:25;;;;;;;36.38;5.40;;;;;;;;;;5012631;28;20022;-47
2022/11/03 12:05:52;;;;;;;28.17;4.97;;;;;;;;;;5012673;28;20113;-49
2022/11/03 12:08:21;;;;;;;29.13;5.45;;;;;;;;;;5012561;28;20418;-47
2022/11/03 12:10:54;;;;;;;25.77;4.97;;;;;;;;;;5012407;28;20022;-50
2022/11/03 12:13:39;;;;;;;25.65;5.10;;;;;;;;;;5012183;28;20072;-47
2022/11/03 12:16:06;;;;;;;27.15;5.45;;;;;;;;;;5012432;28;20057;-51
2022/11/03 12:18:38;;;;;;;35.22;5.43;;;;;;;;;;5012329;28;20764;-48
2022/11/03 12:21:06;;;;;;;23.88;5.07;;;;;;;;;;5011841;28;20036;-51
2022/11/03 12:23:51;;;;;;;35.40;5.13;;;;;;;;;;5012305;28;20030;-49
2022/11/03 12:26:18;;;;;;;25.15;5.15;;;;;;;;;;5012118;28;20037;-53
2022/11/03 12:28:45;;;;;;;42.13;5.10;;;;;;;;;;5011858;28;20025;-48
2022/11/03 12:31:12;;;;;;;32.45;5.30;;;;;;;;;;5005429;28;20105;-49
2022/11/03 12:33:39;;;;;;;27.60;4.45;;;;;;;;;;5009451;28;20141;-52
2022/11/03 12:36:06;;;;;;;32.35;4.43;;;;;;;;;;5011307;28;20365;-50
2022/11/03 12:38:33;;;;;;;40.53;4.60;;;;;;;;;;5010852;28;20125;-51
2022/11/03 12:43:45;;;;;;;27.63;4.63;;;;;;;;;;5009270;28;20044;-49
2022/11/03 12:46:12;;;;;;;30.58;5.55;;;;;;;;;;5010047;28;20037;-49
2022/11/03 12:48:42;;;;;;;31.95;5.05;;;;;;;;;;5009163;28;20030;-48
2022/11/03 12:51:11;;;;;;;32.45;4.97;;;;;;;;;;5009968;28;20136;-48
2022/11/03 12:53:38;;;;;;;40.90;4.80;;;;;;;;;;5010180;28;20037;-47
2022/11/03 12:56:05;;;;;;;32.85;5.90;;;;;;;;;;5011192;28;20492;-49
2022/11/03 12:58:31;;;;;;;38.13;5.05;;;;;;;;;;5010868;28;20025;-48
2022/11/03 13:00:59;;;;;;;39.65;5.38;;;;;;;;;;5009651;28;20022;-46
2022/11/03 13:03:26;;;;;;;36.53;5.78;;;;;;;;;;5010555;28;20025;-46
2022/11/03 13:05:52;;;;;;;47.38;6.28;;;;;;;;;;5010215;28;20498;-47
2022/11/03 13:08:19;;;;;;;79.15;8.65;;;;;;;;;;4993837;28;20516;-49
2022/11/03 13:10:46;;;;;;;71.63;8.35;;;;;;;;;;4993153;28;20034;-51
2022/11/03 13:13:13;;;;;;;94.22;8.80;;;;;;;;;;5011180;28;20491;-50
2022/11/03 13:15:40;;;;;;;70.25;8.05;;;;;;;;;;5008250;28;20539;-52
2022/11/03 13:18:07;;;;;;;81.97;8.15;;;;;;;;;;5008902;28;20029;-50
2022/11/03 13:20:35;;;;;;;63.58;7.68;;;;;;;;;;5008209;28;20036;-45
2022/11/03 13:23:02;;;;;;;87.22;9.55;;;;;;;;;;5009797;28;20033;-46
2022/11/03 13:25:29;;;;;;;73.10;7.85;;;;;;;;;;5008666;28;20040;-47
2022/11/03 13:27:56;;;;;;;77.35;8.23;;;;;;;;;;5010786;28;20494;-45
2022/11/03 13:30:24;;;;;;;85.50;8.70;;;;;;;;;;5010473;28;20026;-46
2022/11/03 13:32:51;;;;;;;88.30;8.70;;;;;;;;;;5004596;28;20034;-46
2022/11/03 13:35:19;;;;;;;71.75;9.07;;;;;;;;;;5009421;28;20052;-47
2022/11/03 13:37:46;;;;;;;73.40;9.10;;;;;;;;;;5010151;28;20029;-51
2022/11/03 13:40:13;;;;;;;93.18;9.48;;;;;;;;;;5010359;28;20061;-48
2022/11/03 13:42:40;;;;;;;106.30;11.38;;;;;;;;;;4997087;28;20080;-49
2022/11/03 13:45:07;;;;;;;95.35;10.20;;;;;;;;;;5010197;28;20076;-53
2022/11/03 13:47:35;;;;;;;112.43;11.15;;;;;;;;;;5009031;28;20104;-52
2022/11/03 13:50:02;;;;;;;93.20;10.65;;;;;;;;;;5010330;28;20491;-52
2022/11/03 13:52:28;;;;;;;100.40;11.27;;;;;;;;;;5010462;28;20044;-46
2022/11/03 13:54:55;;;;;;;80.78;10.65;;;;;;;;;;5003907;28;20034;-50
2022/11/03 13:57:22;;;;;;;88.68;10.48;;;;;;;;;;5013703;28;20034;-48
2022/11/03 13:59:50;;;;;;;81.85;10.43;;;;;;;;;;5011594;28;20080;-46
2022/11/03 14:02:17;;;;;;;78.68;9.52;;;;;;;;;;5002127;28;20034;-48
2022/11/03 14:04:44;;;;;;;76.57;9.40;;;;;;;;;;5014231;28;20447;-47
2022/11/03 14:07:11;;;;;;;82.10;10.35;;;;;;;;;;5014534;28;20121;-49
2022/11/03 14:09:38;;;;;;;63.22;9.80;;;;;;;;;;5012945;28;20069;-49
2022/11/03 14:14:50;;;;;;;81.40;10.10;;;;;;;;;;5012667;28;20137;-46
2022/11/03 14:17:17;;;;;;;88.07;10.35;;;;;;;;;;5005805;28;20133;-49
2022/11/03 14:19:44;;;;;;;87.88;9.75;;;;;;;;;;5011742;28;20026;-51
2022/11/03 14:22:11;;;;;;;102.03;11.40;;;;;;;;;;5011969;28;20125;-50
2022/11/03 14:24:38;;;;;;;88.07;11.63;;;;;;;;;;5011412;28;20109;-48
2022/11/03 14:27:05;;;;;;;86.80;9.75;;;;;;;;;;5012258;28;20515;-48
2022/11/03 14:29:32;;;;;;;97.93;11.00;;;;;;;;;;5010977;28;20056;-51
2022/11/03 14:31:59;;;;;;;78.72;9.93;;;;;;;;;;5012608;28;20025;-48
2022/11/03 14:34:26;;;;;;;88.35;9.88;;;;;;;;;;5011499;28;20085;-49
2022/11/03 14:36:53;;;;;;;74.28;10.02;;;;;;;;;;5011695;28;20025;-49
2022/11/03 14:39:20;;;;;;;83.45;9.23;;;;;;;;;;5011596;28;20109;-50
2022/11/03 14:42:02;;;;;;;71.72;9.48;;;;;;;;;;5011492;28;20022;-51
2022/11/03 14:44:39;;;;;;;100.25;9.00;;;;;;;;;;5012634;28;20496;-53
2022/11/03 14:47:07;;;;;;;86.03;8.75;;;;;;;;;;5011172;28;20125;-48
2022/11/03 14:49:35;;;;;;;68.03;7.70;;;;;;;;;;5001795;28;20479;-48
2022/11/03 14:52:03;;;;;;;68.97;7.60;;;;;;;;;;5013023;28;20029;-47
2022/11/03 14:54:30;;;;;;;60.13;8.20;;;;;;;;;;5013093;28;20120;-48
2022/11/03 14:56:57;;;;;;;74.75;8.30;;;;;;;;;;5010270;28;20026;-46
2022/11/03 14:59:25;;;;;;;66.55;8.77;;;;;;;;;;5007528;28;20040;-50
2022/11/03 15:01:52;;;;;;;63.28;7.40;;;;;;;;;;5009344;28;20064;-51
2022/11/03 15:04:19;;;;;;;69.50;7.43;;;;;;;;;;5013549;28;20088;-54
2022/11/03 15:06:46;;;;;;;56.38;7.97;;;;;;;;;;5011689;28;20377;-50
2022/11/03 15:09:13;;;;;;;63.80;7.60;;;;;;;;;;5001003;28;20030;-57